createdAt,value
2023-04-19T00:01:26.491Z,5.78
2023-04-19T00:03:59.227Z,5.58
2023-04-19T00:06:32.062Z,6.40
2023-04-19T00:09:05.457Z,7.37
2023-04-19T00:11:38.010Z,6.22
2023-04-19T00:14:10.552Z,6.33
2023-04-19T00:16:43.117Z,8.55
2023-04-19T00:19:15.705Z,8.40
2023-04-19T00:21:48.388Z,5.65
2023-04-19T00:24:21.190Z,4.22
2023-04-19T00:26:54.083Z,8.95
2023-04-19T00:29:27.544Z,6.92
2023-04-19T00:32:00.043Z,6.75
2023-04-19T00:34:33.284Z,5.17
2023-04-19T00:37:06.849Z,6.03
2023-04-19T00:39:39.394Z,6.05
2023-04-19T00:42:11.835Z,5.37
2023-04-19T00:44:45.176Z,6.40
2023-04-19T00:47:17.634Z,8.45
2023-04-19T00:49:50.251Z,5.22
2023-04-19T00:52:23.617Z,6.15
2023-04-19T00:54:56.093Z,5.40
2023-04-19T00:57:28.618Z,4.78
2023-04-19T01:00:01.157Z,4.83
2023-04-19T01:02:34.536Z,4.67
2023-04-19T01:05:08.189Z,5.62
2023-04-19T01:07:40.839Z,5.40
2023-04-19T01:10:13.436Z,5.53
2023-04-19T01:12:46.758Z,4.17
2023-04-19T01:15:19.298Z,4.80
2023-04-19T01:17:53.511Z,6.15
2023-04-19T01:20:26.998Z,5.05
2023-04-19T01:23:00.117Z,5.22
2023-04-19T01:25:33.128Z,4.65
2023-04-19T01:28:06.750Z,5.72
2023-04-19T01:30:39.469Z,9.23
2023-04-19T01:33:12.116Z,5.03
2023-04-19T01:35:45.173Z,4.65
2023-04-19T01:38:19.074Z,4.60
2023-04-19T01:40:51.676Z,6.08
2023-04-19T01:43:24.129Z,4.85
2023-04-19T01:45:57.013Z,4.08
2023-04-19T01:48:29.430Z,4.20
2023-04-19T01:51:02.146Z,3.70
2023-04-19T01:53:34.941Z,4.65
2023-04-19T01:56:08.593Z,3.65
2023-04-19T01:58:42.165Z,4.90
2023-04-19T02:01:14.881Z,4.55
2023-04-19T02:03:47.540Z,5.55
2023-04-19T02:06:20.021Z,5.47
2023-04-19T02:08:54.567Z,7.20
2023-04-19T02:11:28.179Z,5.35
2023-04-19T02:14:01.080Z,6.33
2023-04-19T02:16:35.758Z,9.03
2023-04-19T02:19:20.306Z,4.35
2023-04-19T02:21:55.520Z,3.90
2023-04-19T02:24:28.493Z,4.40
2023-04-19T02:27:02.253Z,5.25
2023-04-19T02:29:46.766Z,5.40
2023-04-19T02:32:19.191Z,4.53
2023-04-19T02:34:52.231Z,6.25
2023-04-19T02:37:24.727Z,4.15
2023-04-19T02:39:57.385Z,3.52
2023-04-19T02:42:29.898Z,4.42
2023-04-19T02:45:02.321Z,6.20
2023-04-19T02:47:34.891Z,4.92
2023-04-19T02:50:08.350Z,8.13
2023-04-19T02:52:42.962Z,5.33
2023-04-19T02:55:15.501Z,4.35
2023-04-19T02:57:48.544Z,5.50
2023-04-19T03:00:21.181Z,6.25
2023-04-19T03:05:28.754Z,7.78
2023-04-19T03:08:01.399Z,8.10
2023-04-19T03:10:34.198Z,5.45
2023-04-19T03:13:07.159Z,4.03
2023-04-19T03:15:40.059Z,5.37
2023-04-19T03:18:13.302Z,5.78
2023-04-19T03:20:46.920Z,5.13
2023-04-19T03:23:19.283Z,5.85
2023-04-19T03:25:52.071Z,6.35
2023-04-19T03:31:00.156Z,6.50
2023-04-19T03:33:33.006Z,8.38
2023-04-19T03:36:06.191Z,5.62
2023-04-19T03:38:39.173Z,8.68
2023-04-19T03:41:26.906Z,6.95
2023-04-19T03:44:06.950Z,5.00
2023-04-19T03:49:13.694Z,6.70
2023-04-19T03:51:47.360Z,10.33
2023-04-19T03:54:20.099Z,7.20
2023-04-19T03:56:52.510Z,6.22
2023-04-19T03:59:34.473Z,5.95
2023-04-19T04:02:08.839Z,4.40
2023-04-19T04:04:41.940Z,5.10
2023-04-19T04:07:14.618Z,9.15
2023-04-19T04:09:49.240Z,6.75
2023-04-19T04:12:21.837Z,6.03
2023-04-19T04:14:56.026Z,7.67
2023-04-19T04:17:28.841Z,8.40
2023-04-19T04:20:01.683Z,7.62
2023-04-19T04:25:08.933Z,6.75
2023-04-19T04:27:47.974Z,5.67
2023-04-19T04:30:21.993Z,5.53
2023-04-19T04:32:56.481Z,5.03
2023-04-19T04:35:30.205Z,5.70
2023-04-19T04:38:17.478Z,6.03
2023-04-19T04:40:42.311Z,10.53
2023-04-19T04:43:14.799Z,7.30
2023-04-19T04:45:47.491Z,4.95
2023-04-19T04:48:20.420Z,7.30
2023-04-19T04:50:52.986Z,7.50
2023-04-19T04:53:28.564Z,6.15
2023-04-19T04:56:01.016Z,5.22
2023-04-19T04:58:34.541Z,7.08
2023-04-19T05:01:08.859Z,7.37
2023-04-19T05:03:43.258Z,7.67
2023-04-19T05:06:17.518Z,8.50
2023-04-19T05:08:50.131Z,8.73
2023-04-19T05:11:24.447Z,5.62
2023-04-19T05:13:57.379Z,7.85
2023-04-19T05:16:30.156Z,6.75
2023-04-19T05:19:02.668Z,9.28
2023-04-19T05:21:37.469Z,10.58
2023-04-19T05:24:10.371Z,6.78
2023-04-19T05:26:43.328Z,6.42
2023-04-19T05:29:16.589Z,5.03
2023-04-19T05:31:54.052Z,6.33
2023-04-19T05:34:31.585Z,6.28
2023-04-19T05:37:06.701Z,6.70
2023-04-19T05:39:39.213Z,4.47
2023-04-19T05:42:12.037Z,6.28
2023-04-19T05:44:45.440Z,12.37
2023-04-19T05:47:18.444Z,6.15
2023-04-19T05:49:59.121Z,8.63
2023-04-19T05:52:39.537Z,4.37
2023-04-19T05:55:12.661Z,10.28
2023-04-19T06:00:19.192Z,6.33
2023-04-19T06:02:53.650Z,6.55
2023-04-19T06:05:26.849Z,9.30
2023-04-19T06:08:02.732Z,6.25
2023-04-19T06:10:51.837Z,7.92
2023-04-19T06:13:11.995Z,6.60
2023-04-19T06:15:45.608Z,7.87
2023-04-19T06:18:18.765Z,6.87
2023-04-19T06:20:53.429Z,6.65
2023-04-19T06:23:27.079Z,6.72
2023-04-19T06:25:59.571Z,8.23
2023-04-19T06:28:32.814Z,11.25
2023-04-19T06:31:05.960Z,10.10
2023-04-19T06:33:38.986Z,5.17
2023-04-19T06:36:11.598Z,5.25
2023-04-19T06:38:44.796Z,8.33
2023-04-19T06:41:17.965Z,8.45
2023-04-19T06:43:50.488Z,13.65
2023-04-19T06:46:23.003Z,8.63
2023-04-19T06:48:55.617Z,5.90
2023-04-19T06:51:28.150Z,6.95
2023-04-19T06:54:00.811Z,8.80
2023-04-19T06:56:50.663Z,8.70
2023-04-19T06:59:23.487Z,12.35
2023-04-19T07:01:57.732Z,11.28
2023-04-19T07:04:30.442Z,7.80
2023-04-19T07:07:03.042Z,11.45
2023-04-19T07:09:35.423Z,7.83
2023-04-19T07:12:08.512Z,6.25
2023-04-19T07:14:41.007Z,7.78
2023-04-19T07:17:14.657Z,8.08
2023-04-19T07:19:51.712Z,8.20
2023-04-19T07:22:24.155Z,6.25
2023-04-19T07:24:56.618Z,7.92
2023-04-19T07:27:29.474Z,9.90
2023-04-19T07:30:02.060Z,6.70
2023-04-19T07:32:35.281Z,11.10
2023-04-19T07:35:08.693Z,7.25
2023-04-19T07:37:41.790Z,9.65
2023-04-19T07:40:35.979Z,9.93
2023-04-19T07:43:08.474Z,10.98
2023-04-19T07:45:40.946Z,10.00
2023-04-19T07:48:15.400Z,13.93
2023-04-19T07:50:48.430Z,14.93
2023-04-19T07:53:20.920Z,9.88
2023-04-19T07:55:53.484Z,12.47
2023-04-19T07:58:27.144Z,12.82
2023-04-19T08:00:59.537Z,12.53
2023-04-19T08:03:37.244Z,12.90
2023-04-19T08:06:10.244Z,6.62
2023-04-19T08:08:42.932Z,15.28
2023-04-19T08:11:15.706Z,10.82
2023-04-19T08:14:02.906Z,11.20
2023-04-19T08:16:59.195Z,7.78
2023-04-19T08:18:56.747Z,11.48
2023-04-19T08:21:40.125Z,9.50
2023-04-19T08:24:03.293Z,10.08
2023-04-19T08:26:35.965Z,6.60
2023-04-19T08:29:08.573Z,10.75
2023-04-19T08:31:43.471Z,16.02
2023-04-19T08:36:59.916Z,11.73
2023-04-19T08:39:32.345Z,11.33
2023-04-19T08:44:36.739Z,10.43
2023-04-19T08:47:08.243Z,12.20
2023-04-19T08:49:43.362Z,6.85
2023-04-19T08:52:16.466Z,9.70
2023-04-19T08:54:49.305Z,12.55
2023-04-19T08:57:34.114Z,13.18
2023-04-19T09:02:49.812Z,10.35
2023-04-19T09:05:22.752Z,23.27
2023-04-19T09:07:56.227Z,17.05
2023-04-19T09:10:28.998Z,12.98
2023-04-19T09:13:07.754Z,20.72
2023-04-19T09:15:43.688Z,12.50
2023-04-19T09:18:16.703Z,7.87
2023-04-19T09:20:49.236Z,20.27
2023-04-19T09:23:21.910Z,23.42
2023-04-19T09:28:37.279Z,19.85
2023-04-19T09:31:39.182Z,15.68
2023-04-19T09:33:50.196Z,17.92
2023-04-19T09:36:33.800Z,11.73
2023-04-19T09:39:06.418Z,10.48
2023-04-19T09:41:53.824Z,18.15
2023-04-19T09:47:00.563Z,11.68
2023-04-19T09:52:07.620Z,19.12
2023-04-19T09:54:40.173Z,17.17
2023-04-19T09:57:12.672Z,18.25
2023-04-19T09:59:45.312Z,15.53
2023-04-19T10:02:17.843Z,23.67
2023-04-19T10:07:30.546Z,23.38
2023-04-19T10:10:11.671Z,19.42
2023-04-19T10:18:02.879Z,18.50
2023-04-19T10:20:59.018Z,20.27
2023-04-19T10:23:31.609Z,19.70
2023-04-19T10:26:04.336Z,18.87
2023-04-19T10:28:38.837Z,19.85
